EST,Max TemperatureF,Mean TemperatureF,Min TemperatureF,Max Dew PointF,MeanDew PointF,Min DewpointF,Max Humidity, Mean Humidity, Min Humidity, Max Sea Level PressureIn, Mean Sea Level PressureIn, Min Sea Level PressureIn, Max VisibilityMiles, Mean VisibilityMiles, Min VisibilityMiles, Max Wind SpeedMPH, Mean Wind SpeedMPH, Max Gust SpeedMPH,PrecipitationIn, CloudCover, Events, WindDirDegrees
2013-1-1,41,36,29,30,25,14,73,59,46,30.03,29.92,29.85,10,10,10,16,8,22,0.00,5,,283
2013-1-2,36,30,25,18,14,11,60,51,41,30.20,30.08,30.01,10,10,10,17,8,25,0.00,0,Snow,297
2013-1-3,35,31,27,19,17,14,67,57,44,30.21,30.15,30.08,10,10,10,13,7,17,0.00,1,Snow,275
2013-1-4,39,35,31,23,21,19,62,56,47,30.10,30.04,29.97,10,10,10,21,9,28,0.00,3,Snow,261
2013-1-5,45,39,33,24,21,19,64,52,39,30.30,30.21,30.04,10,10,10,17,8,32,0.00,1,,277
2013-1-6,48,40,33,33,28,23,90,62,43,30.24,30.08,29.98,10,9,5,13,4,17,0.00,6,Snow,258
2013-1-7,47,40,34,31,26,21,74,56,36,30.41,30.29,30.06,10,10,10,16,6,22,0.00,1,,291
2013-1-8,50,40,30,32,29,24,82,67,46,30.44,30.39,30.35,10,10,7,12,2,16,0.00,0,,249
2013-1-9,51,42,33,38,34,30,87,71,60,30.40,30.29,30.14,10,9,5,13,2,20,0.00,3,Rain,248
2013-1-10,50,44,37,33,26,23,67,48,35,30.56,30.47,30.25,10,10,10,16,8,21,0.00,0,,304
2013-1-11,47,42,38,46,35,24,97,73,49,30.55,30.35,30.09,10,8,2,8,3,,0.36,5,Rain,94
2013-1-12,49,46,44,46,45,43,97,93,88,30.17,30.13,30.08,10,6,2,6,3,,0.01,8,,355
2013-1-13,50,46,44,48,46,43,98,96,90,30.16,30.10,30.02,10,3,0,5,2,,0.01,8,Fog,142
2013-1-14,58,50,41,56,44,28,99,78,40,30.31,30.11,29.91,10,6,0,13,4,18,0.06,7,Fog-Rain,319
2013-1-15,41,39,37,37,29,26,86,67,55,30.36,30.29,30.22,10,10,7,10,5,,0.09,8,Rain,7
2013-1-16,39,36,34,35,34,32,95,92,80,30.22,29.99,29.83,10,6,2,12,5,17,0.50,7,Rain,318
2013-1-17,45,42,38,35,30,26,86,64,51,30.10,30.03,29.93,10,10,10,13,6,21,0.00,3,,297
2013-1-18,37,34,29,26,12,4,61,45,31,30.50,30.34,30.03,10,10,10,20,8,31,0.00,3,,325
2013-1-19,53,40,28,29,23,12,68,49,33,30.42,30.18,29.94,10,10,10,17,4,24,0.00,0,,226
2013-1-20,57,44,32,30,23,12,69,45,22,30.06,29.84,29.70,10,10,10,29,9,40,0.00,0,,271
2013-1-21,33,30,26,19,12,8,63,46,37,30.11,30.00,29.86,10,10,10,15,5,20,0.00,5,,278
2013-1-22,27,22,15,10,1,-6,51,40,29,30.23,30.05,29.85,10,10,10,24,15,32,0.00,1,,283
2013-1-23,23,17,12,4,-2,-6,59,44,32,30.28,30.23,30.19,10,10,10,18,11,25,0.00,2,,281
2013-1-24,27,20,13,6,1,-5,71,46,26,30.43,30.27,30.15,10,10,10,23,7,38,0.00,1,Snow,310
2013-1-25,25,20,14,18,6,-4,91,58,37,30.44,30.30,30.08,10,9,2,15,7,23,0.00,3,Snow,276
2013-1-26,30,22,13,13,10,6,90,62,38,30.39,30.19,30.06,10,10,10,16,8,23,0.00,1,Snow,299
2013-1-27,37,28,18,14,11,9,68,51,32,30.54,30.48,30.40,10,10,3,13,7,22,0.00,0,Snow,290
2013-1-28,36,31,26,35,26,14,93,79,57,30.51,30.26,30.02,10,6,1,7,2,,0.07,7,Rain-Snow,219
2013-1-29,54,45,36,43,40,34,95,87,60,30.14,30.09,30.01,10,5,3,13,3,,0.00,8,Rain,137
2013-1-30,69,56,42,61,51,42,99,88,68,30.08,29.73,29.37,10,6,0,17,3,25,0.00,8,Fog-Rain,180
2013-1-31,64,48,31,60,31,10,89,58,35,29.81,29.45,29.06,10,9,2,37,19,52,0.71,4,Rain-Snow,256